sensor_id;sensor_type;location;lat;lon;timestamp;P1;durP1;ratioP1;P2;durP2;ratioP2
6551;SDS011;3309;48.708;9.290;2024-01-16T00:00:15;0.90;;;0.90;;
6551;SDS011;3309;48.708;9.290;2024-01-16T00:02:41;0.80;;;0.80;;
6551;SDS011;3309;48.708;9.290;2024-01-16T00:05:06;0.80;;;0.80;;
6551;SDS011;3309;48.708;9.290;2024-01-16T00:07:32;0.90;;;0.90;;
6551;SDS011;3309;48.708;9.290;2024-01-16T00:10:00;0.90;;;0.90;;
6551;SDS011;3309;48.708;9.290;2024-01-16T00:12:25;0.90;;;0.90;;
6551;SDS011;3309;48.708;9.290;2024-01-16T00:14:51;0.90;;;0.90;;
6551;SDS011;3309;48.708;9.290;2024-01-16T00:17:17;0.90;;;0.90;;
6551;SDS011;3309;48.708;9.290;2024-01-16T00:19:42;0.80;;;0.80;;
6551;SDS011;3309;48.708;9.290;2024-01-16T00:22:08;0.80;;;0.80;;
6551;SDS011;3309;48.708;9.290;2024-01-16T00:24:33;1.00;;;1.00;;
6551;SDS011;3309;48.708;9.290;2024-01-16T00:26:59;0.90;;;0.90;;
6551;SDS011;3309;48.708;9.290;2024-01-16T00:29:25;0.90;;;0.90;;
6551;SDS011;3309;48.708;9.290;2024-01-16T00:31:50;0.80;;;0.80;;
6551;SDS011;3309;48.708;9.290;2024-01-16T00:34:16;0.90;;;0.90;;
6551;SDS011;3309;48.708;9.290;2024-01-16T00:36:41;0.93;;;0.93;;
6551;SDS011;3309;48.708;9.290;2024-01-16T00:39:07;1.00;;;1.00;;
6551;SDS011;3309;48.708;9.290;2024-01-16T00:41:33;0.80;;;0.80;;
6551;SDS011;3309;48.708;9.290;2024-01-16T00:43:58;0.90;;;0.90;;
6551;SDS011;3309;48.708;9.290;2024-01-16T00:46:24;0.90;;;0.90;;
6551;SDS011;3309;48.708;9.290;2024-01-16T00:48:50;0.90;;;0.90;;
6551;SDS011;3309;48.708;9.290;2024-01-16T00:51:15;0.90;;;0.90;;
6551;SDS011;3309;48.708;9.290;2024-01-16T00:53:41;0.90;;;0.90;;
6551;SDS011;3309;48.708;9.290;2024-01-16T00:56:07;1.00;;;1.00;;
6551;SDS011;3309;48.708;9.290;2024-01-16T00:58:33;0.90;;;0.90;;
6551;SDS011;3309;48.708;9.290;2024-01-16T01:00:59;0.90;;;0.90;;
6551;SDS011;3309;48.708;9.290;2024-01-16T01:03:25;1.00;;;1.00;;
6551;SDS011;3309;48.708;9.290;2024-01-16T01:05:50;0.90;;;0.90;;
6551;SDS011;3309;48.708;9.290;2024-01-16T01:08:16;0.90;;;0.90;;
6551;SDS011;3309;48.708;9.290;2024-01-16T01:10:42;0.90;;;0.90;;
6551;SDS011;3309;48.708;9.290;2024-01-16T01:13:08;1.00;;;1.00;;
6551;SDS011;3309;48.708;9.290;2024-01-16T01:15:35;1.00;;;1.00;;
6551;SDS011;3309;48.708;9.290;2024-01-16T01:18:00;0.80;;;0.80;;
6551;SDS011;3309;48.708;9.290;2024-01-16T01:20:26;1.00;;;1.00;;
6551;SDS011;3309;48.708;9.290;2024-01-16T01:22:51;0.90;;;0.90;;
6551;SDS011;3309;48.708;9.290;2024-01-16T01:25:17;0.90;;;0.90;;
6551;SDS011;3309;48.708;9.290;2024-01-16T01:27:43;0.90;;;0.90;;
6551;SDS011;3309;48.708;9.290;2024-01-16T01:30:08;0.90;;;0.90;;
6551;SDS011;3309;48.708;9.290;2024-01-16T01:32:35;0.90;;;0.90;;
6551;SDS011;3309;48.708;9.290;2024-01-16T01:35:01;0.90;;;0.90;;
6551;SDS011;3309;48.708;9.290;2024-01-16T01:37:27;1.00;;;1.00;;
6551;SDS011;3309;48.708;9.290;2024-01-16T01:39:52;0.90;;;0.90;;
6551;SDS011;3309;48.708;9.290;2024-01-16T01:42:18;0.90;;;0.90;;
6551;SDS011;3309;48.708;9.290;2024-01-16T01:44:43;0.90;;;0.90;;
6551;SDS011;3309;48.708;9.290;2024-01-16T01:47:09;0.80;;;0.80;;
6551;SDS011;3309;48.708;9.290;2024-01-16T01:49:35;0.90;;;0.90;;
6551;SDS011;3309;48.708;9.290;2024-01-16T01:52:02;0.90;;;0.90;;
6551;SDS011;3309;48.708;9.290;2024-01-16T01:54:29;0.87;;;0.87;;
6551;SDS011;3309;48.708;9.290;2024-01-16T01:56:57;0.90;;;0.90;;
6551;SDS011;3309;48.708;9.290;2024-01-16T01:59:23;0.90;;;0.90;;
6551;SDS011;3309;48.708;9.290;2024-01-16T02:01:50;1.00;;;1.00;;
6551;SDS011;3309;48.708;9.290;2024-01-16T02:04:19;0.90;;;0.90;;
6551;SDS011;3309;48.708;9.290;2024-01-16T02:06:46;0.90;;;0.90;;
6551;SDS011;3309;48.708;9.290;2024-01-16T02:09:12;0.90;;;0.90;;
6551;SDS011;3309;48.708;9.290;2024-01-16T02:11:40;0.90;;;0.90;;
6551;SDS011;3309;48.708;9.290;2024-01-16T02:14:07;0.90;;;0.90;;
6551;SDS011;3309;48.708;9.290;2024-01-16T02:16:39;0.90;;;0.90;;
6551;SDS011;3309;48.708;9.290;2024-01-16T02:19:06;0.90;;;0.90;;
6551;SDS011;3309;48.708;9.290;2024-01-16T02:21:39;0.90;;;0.90;;
6551;SDS011;3309;48.708;9.290;2024-01-16T02:24:16;0.90;;;0.90;;
6551;SDS011;3309;48.708;9.290;2024-01-16T02:26:43;0.90;;;0.90;;
6551;SDS011;3309;48.708;9.290;2024-01-16T02:29:09;0.90;;;0.90;;
6551;SDS011;3309;48.708;9.290;2024-01-16T02:31:34;0.90;;;0.90;;
6551;SDS011;3309;48.708;9.290;2024-01-16T02:34:01;1.00;;;1.00;;
6551;SDS011;3309;48.708;9.290;2024-01-16T02:36:29;0.97;;;0.97;;
6551;SDS011;3309;48.708;9.290;2024-01-16T02:38:54;0.90;;;0.90;;
6551;SDS011;3309;48.708;9.290;2024-01-16T02:41:20;0.90;;;0.90;;
6551;SDS011;3309;48.708;9.290;2024-01-16T02:43:47;0.90;;;0.90;;
6551;SDS011;3309;48.708;9.290;2024-01-16T02:46:13;0.90;;;0.90;;
6551;SDS011;3309;48.708;9.290;2024-01-16T02:48:39;0.90;;;0.90;;
6551;SDS011;3309;48.708;9.290;2024-01-16T02:51:07;0.90;;;0.90;;
6551;SDS011;3309;48.708;9.290;2024-01-16T02:53:33;0.90;;;0.90;;
6551;SDS011;3309;48.708;9.290;2024-01-16T02:55:59;0.90;;;0.90;;
6551;SDS011;3309;48.708;9.290;2024-01-16T02:58:28;0.80;;;0.80;;
6551;SDS011;3309;48.708;9.290;2024-01-16T03:00:55;0.90;;;0.90;;
6551;SDS011;3309;48.708;9.290;2024-01-16T03:03:22;0.87;;;0.87;;
6551;SDS011;3309;48.708;9.290;2024-01-16T03:05:47;1.10;;;1.10;;
6551;SDS011;3309;48.708;9.290;2024-01-16T03:08:13;0.90;;;0.90;;
6551;SDS011;3309;48.708;9.290;2024-01-16T03:10:38;1.00;;;1.00;;
6551;SDS011;3309;48.708;9.290;2024-01-16T03:13:04;0.97;;;0.97;;
6551;SDS011;3309;48.708;9.290;2024-01-16T03:15:30;1.00;;;1.00;;
6551;SDS011;3309;48.708;9.290;2024-01-16T03:17:56;0.80;;;0.80;;
6551;SDS011;3309;48.708;9.290;2024-01-16T03:20:22;0.90;;;0.90;;
6551;SDS011;3309;48.708;9.290;2024-01-16T03:22:48;0.90;;;0.90;;
6551;SDS011;3309;48.708;9.290;2024-01-16T03:25:14;0.90;;;0.90;;
6551;SDS011;3309;48.708;9.290;2024-01-16T03:27:39;1.00;;;1.00;;
6551;SDS011;3309;48.708;9.290;2024-01-16T03:30:05;0.90;;;0.90;;
6551;SDS011;3309;48.708;9.290;2024-01-16T03:32:33;0.90;;;0.90;;
6551;SDS011;3309;48.708;9.290;2024-01-16T03:34:59;0.80;;;0.80;;
6551;SDS011;3309;48.708;9.290;2024-01-16T03:37:24;1.00;;;1.00;;
6551;SDS011;3309;48.708;9.290;2024-01-16T03:39:50;0.90;;;0.90;;
6551;SDS011;3309;48.708;9.290;2024-01-16T03:42:15;0.90;;;0.90;;
6551;SDS011;3309;48.708;9.290;2024-01-16T03:44:41;0.90;;;0.90;;
6551;SDS011;3309;48.708;9.290;2024-01-16T03:47:07;0.90;;;0.90;;
6551;SDS011;3309;48.708;9.290;2024-01-16T03:49:33;0.90;;;0.90;;
6551;SDS011;3309;48.708;9.290;2024-01-16T03:51:59;0.97;;;0.97;;
6551;SDS011;3309;48.708;9.290;2024-01-16T03:54:25;0.80;;;0.80;;
6551;SDS011;3309;48.708;9.290;2024-01-16T03:56:51;0.90;;;0.90;;
6551;SDS011;3309;48.708;9.290;2024-01-16T03:59:18;0.90;;;0.90;;
6551;SDS011;3309;48.708;9.290;2024-01-16T04:01:43;0.90;;;0.90;;
6551;SDS011;3309;48.708;9.290;2024-01-16T04:04:10;1.03;;;1.03;;
6551;SDS011;3309;48.708;9.290;2024-01-16T04:06:36;1.00;;;1.00;;
6551;SDS011;3309;48.708;9.290;2024-01-16T04:09:02;0.90;;;0.90;;
6551;SDS011;3309;48.708;9.290;2024-01-16T04:11:29;0.90;;;0.90;;
6551;SDS011;3309;48.708;9.290;2024-01-16T04:13:55;1.00;;;1.00;;
6551;SDS011;3309;48.708;9.290;2024-01-16T04:16:22;0.90;;;0.90;;
6551;SDS011;3309;48.708;9.290;2024-01-16T04:18:48;1.00;;;1.00;;
6551;SDS011;3309;48.708;9.290;2024-01-16T04:21:13;1.00;;;1.00;;
6551;SDS011;3309;48.708;9.290;2024-01-16T04:23:40;1.00;;;1.00;;
6551;SDS011;3309;48.708;9.290;2024-01-16T04:26:07;1.00;;;1.00;;
6551;SDS011;3309;48.708;9.290;2024-01-16T04:28:33;1.00;;;1.00;;
6551;SDS011;3309;48.708;9.290;2024-01-16T04:30:59;0.90;;;0.90;;
6551;SDS011;3309;48.708;9.290;2024-01-16T04:33:25;1.00;;;1.00;;
6551;SDS011;3309;48.708;9.290;2024-01-16T04:35:51;1.00;;;1.00;;
6551;SDS011;3309;48.708;9.290;2024-01-16T04:38:16;1.00;;;1.00;;
6551;SDS011;3309;48.708;9.290;2024-01-16T04:40:42;0.90;;;0.90;;
6551;SDS011;3309;48.708;9.290;2024-01-16T04:43:07;1.00;;;1.00;;
6551;SDS011;3309;48.708;9.290;2024-01-16T04:45:33;0.93;;;0.93;;
6551;SDS011;3309;48.708;9.290;2024-01-16T04:47:58;0.83;;;0.83;;
6551;SDS011;3309;48.708;9.290;2024-01-16T04:50:24;1.10;;;1.10;;
6551;SDS011;3309;48.708;9.290;2024-01-16T04:52:56;1.00;;;1.00;;
6551;SDS011;3309;48.708;9.290;2024-01-16T04:55:22;0.90;;;0.90;;
6551;SDS011;3309;48.708;9.290;2024-01-16T04:57:47;1.00;;;1.00;;
6551;SDS011;3309;48.708;9.290;2024-01-16T05:00:13;1.10;;;1.10;;
6551;SDS011;3309;48.708;9.290;2024-01-16T05:02:39;1.00;;;1.00;;
6551;SDS011;3309;48.708;9.290;2024-01-16T05:05:05;0.90;;;0.90;;
6551;SDS011;3309;48.708;9.290;2024-01-16T05:07:31;0.90;;;0.90;;
6551;SDS011;3309;48.708;9.290;2024-01-16T05:09:56;1.00;;;1.00;;
6551;SDS011;3309;48.708;9.290;2024-01-16T05:12:23;0.90;;;0.90;;
6551;SDS011;3309;48.708;9.290;2024-01-16T05:14:48;0.90;;;0.90;;
6551;SDS011;3309;48.708;9.290;2024-01-16T05:17:14;1.00;;;1.00;;
6551;SDS011;3309;48.708;9.290;2024-01-16T05:19:39;0.90;;;0.90;;
6551;SDS011;3309;48.708;9.290;2024-01-16T05:22:05;0.97;;;0.97;;
6551;SDS011;3309;48.708;9.290;2024-01-16T05:24:31;1.00;;;1.00;;
6551;SDS011;3309;48.708;9.290;2024-01-16T05:26:57;0.90;;;0.90;;
6551;SDS011;3309;48.708;9.290;2024-01-16T05:29:23;1.00;;;1.00;;
6551;SDS011;3309;48.708;9.290;2024-01-16T05:31:48;1.00;;;1.00;;
6551;SDS011;3309;48.708;9.290;2024-01-16T05:34:14;1.00;;;1.00;;
6551;SDS011;3309;48.708;9.290;2024-01-16T05:36:40;0.90;;;0.90;;
6551;SDS011;3309;48.708;9.290;2024-01-16T05:39:06;0.90;;;0.90;;
6551;SDS011;3309;48.708;9.290;2024-01-16T05:41:33;1.00;;;1.00;;
6551;SDS011;3309;48.708;9.290;2024-01-16T05:43:59;0.90;;;0.90;;
6551;SDS011;3309;48.708;9.290;2024-01-16T05:46:25;0.90;;;0.90;;
6551;SDS011;3309;48.708;9.290;2024-01-16T05:48:51;0.90;;;0.90;;
6551;SDS011;3309;48.708;9.290;2024-01-16T05:51:16;1.00;;;1.00;;
6551;SDS011;3309;48.708;9.290;2024-01-16T05:53:42;0.90;;;0.90;;
6551;SDS011;3309;48.708;9.290;2024-01-16T05:56:08;0.90;;;0.90;;
6551;SDS011;3309;48.708;9.290;2024-01-16T05:58:34;1.00;;;1.00;;
6551;SDS011;3309;48.708;9.290;2024-01-16T06:01:04;1.00;;;1.00;;
6551;SDS011;3309;48.708;9.290;2024-01-16T06:03:30;1.00;;;1.00;;
6551;SDS011;3309;48.708;9.290;2024-01-16T06:05:55;1.00;;;1.00;;
6551;SDS011;3309;48.708;9.290;2024-01-16T06:08:21;1.00;;;1.00;;
6551;SDS011;3309;48.708;9.290;2024-01-16T06:10:46;1.00;;;1.00;;
6551;SDS011;3309;48.708;9.290;2024-01-16T06:13:12;1.07;;;1.07;;
6551;SDS011;3309;48.708;9.290;2024-01-16T06:15:38;1.00;;;1.00;;
6551;SDS011;3309;48.708;9.290;2024-01-16T06:18:03;1.00;;;1.00;;
6551;SDS011;3309;48.708;9.290;2024-01-16T06:20:29;1.10;;;1.10;;
6551;SDS011;3309;48.708;9.290;2024-01-16T06:22:55;1.00;;;1.00;;
6551;SDS011;3309;48.708;9.290;2024-01-16T06:25:21;0.90;;;0.90;;
6551;SDS011;3309;48.708;9.290;2024-01-16T06:27:47;0.90;;;0.90;;
6551;SDS011;3309;48.708;9.290;2024-01-16T06:30:13;1.00;;;1.00;;
6551;SDS011;3309;48.708;9.290;2024-01-16T06:32:38;1.07;;;1.07;;
6551;SDS011;3309;48.708;9.290;2024-01-16T06:35:04;0.93;;;0.93;;
6551;SDS011;3309;48.708;9.290;2024-01-16T06:37:30;0.93;;;0.93;;
6551;SDS011;3309;48.708;9.290;2024-01-16T06:39:56;0.90;;;0.90;;
6551;SDS011;3309;48.708;9.290;2024-01-16T06:42:22;0.93;;;0.93;;
6551;SDS011;3309;48.708;9.290;2024-01-16T06:44:47;0.90;;;0.90;;
6551;SDS011;3309;48.708;9.290;2024-01-16T06:47:13;0.93;;;0.93;;
6551;SDS011;3309;48.708;9.290;2024-01-16T06:49:38;0.90;;;0.90;;
6551;SDS011;3309;48.708;9.290;2024-01-16T06:52:04;0.90;;;0.90;;
6551;SDS011;3309;48.708;9.290;2024-01-16T06:54:30;1.00;;;1.00;;
6551;SDS011;3309;48.708;9.290;2024-01-16T06:56:56;0.90;;;0.90;;
6551;SDS011;3309;48.708;9.290;2024-01-16T06:59:21;0.90;;;0.90;;
6551;SDS011;3309;48.708;9.290;2024-01-16T07:01:47;1.00;;;1.00;;
6551;SDS011;3309;48.708;9.290;2024-01-16T07:04:13;0.90;;;0.90;;
6551;SDS011;3309;48.708;9.290;2024-01-16T07:06:39;0.90;;;0.90;;
6551;SDS011;3309;48.708;9.290;2024-01-16T07:09:05;1.00;;;1.00;;
6551;SDS011;3309;48.708;9.290;2024-01-16T07:11:31;1.00;;;1.00;;
6551;SDS011;3309;48.708;9.290;2024-01-16T07:13:56;1.00;;;1.00;;
6551;SDS011;3309;48.708;9.290;2024-01-16T07:16:23;1.00;;;1.00;;
6551;SDS011;3309;48.708;9.290;2024-01-16T07:18:49;1.00;;;1.00;;
6551;SDS011;3309;48.708;9.290;2024-01-16T07:21:18;0.90;;;0.90;;
6551;SDS011;3309;48.708;9.290;2024-01-16T07:23:44;1.00;;;1.00;;
6551;SDS011;3309;48.708;9.290;2024-01-16T07:26:10;1.00;;;1.00;;
6551;SDS011;3309;48.708;9.290;2024-01-16T07:28:36;0.90;;;0.90;;
6551;SDS011;3309;48.708;9.290;2024-01-16T07:31:05;1.00;;;1.00;;
6551;SDS011;3309;48.708;9.290;2024-01-16T07:33:32;1.00;;;1.00;;
6551;SDS011;3309;48.708;9.290;2024-01-16T07:35:57;0.90;;;0.90;;
6551;SDS011;3309;48.708;9.290;2024-01-16T07:38:23;1.00;;;1.00;;
6551;SDS011;3309;48.708;9.290;2024-01-16T07:40:49;0.90;;;0.90;;
6551;SDS011;3309;48.708;9.290;2024-01-16T07:43:14;0.90;;;0.90;;
6551;SDS011;3309;48.708;9.290;2024-01-16T07:45:40;1.00;;;1.00;;
6551;SDS011;3309;48.708;9.290;2024-01-16T07:48:05;1.00;;;1.00;;
6551;SDS011;3309;48.708;9.290;2024-01-16T07:50:31;1.00;;;1.00;;
6551;SDS011;3309;48.708;9.290;2024-01-16T07:52:57;1.00;;;1.00;;
6551;SDS011;3309;48.708;9.290;2024-01-16T07:55:22;0.97;;;0.97;;
6551;SDS011;3309;48.708;9.290;2024-01-16T07:57:49;0.90;;;0.90;;
6551;SDS011;3309;48.708;9.290;2024-01-16T08:00:14;1.00;;;1.00;;
6551;SDS011;3309;48.708;9.290;2024-01-16T08:02:40;0.97;;;0.97;;
6551;SDS011;3309;48.708;9.290;2024-01-16T08:05:06;0.90;;;0.90;;
6551;SDS011;3309;48.708;9.290;2024-01-16T08:07:32;0.90;;;0.90;;
6551;SDS011;3309;48.708;9.290;2024-01-16T08:09:59;0.90;;;0.90;;
6551;SDS011;3309;48.708;9.290;2024-01-16T08:12:25;0.90;;;0.90;;
6551;SDS011;3309;48.708;9.290;2024-01-16T08:14:50;0.80;;;0.80;;
6551;SDS011;3309;48.708;9.290;2024-01-16T08:17:17;0.80;;;0.80;;
6551;SDS011;3309;48.708;9.290;2024-01-16T08:19:43;0.90;;;0.90;;
6551;SDS011;3309;48.708;9.290;2024-01-16T08:22:08;0.80;;;0.80;;
6551;SDS011;3309;48.708;9.290;2024-01-16T08:24:34;0.90;;;0.90;;
6551;SDS011;3309;48.708;9.290;2024-01-16T08:26:59;0.90;;;0.90;;
6551;SDS011;3309;48.708;9.290;2024-01-16T08:29:25;0.80;;;0.80;;
6551;SDS011;3309;48.708;9.290;2024-01-16T08:31:50;0.90;;;0.90;;
6551;SDS011;3309;48.708;9.290;2024-01-16T08:34:17;0.90;;;0.90;;
6551;SDS011;3309;48.708;9.290;2024-01-16T08:36:43;0.90;;;0.90;;
6551;SDS011;3309;48.708;9.290;2024-01-16T08:39:12;0.80;;;0.80;;
6551;SDS011;3309;48.708;9.290;2024-01-16T08:41:38;0.90;;;0.90;;
6551;SDS011;3309;48.708;9.290;2024-01-16T08:44:04;0.93;;;0.93;;
6551;SDS011;3309;48.708;9.290;2024-01-16T08:46:29;0.90;;;0.90;;
6551;SDS011;3309;48.708;9.290;2024-01-16T08:48:55;0.83;;;0.83;;
6551;SDS011;3309;48.708;9.290;2024-01-16T08:51:20;0.90;;;0.90;;
6551;SDS011;3309;48.708;9.290;2024-01-16T08:53:46;0.80;;;0.80;;
6551;SDS011;3309;48.708;9.290;2024-01-16T08:56:11;1.00;;;1.00;;
6551;SDS011;3309;48.708;9.290;2024-01-16T08:58:38;0.90;;;0.90;;
6551;SDS011;3309;48.708;9.290;2024-01-16T09:01:04;0.90;;;0.90;;
6551;SDS011;3309;48.708;9.290;2024-01-16T09:03:30;0.90;;;0.90;;
6551;SDS011;3309;48.708;9.290;2024-01-16T09:05:59;0.80;;;0.80;;
6551;SDS011;3309;48.708;9.290;2024-01-16T09:08:25;0.90;;;0.90;;
6551;SDS011;3309;48.708;9.290;2024-01-16T09:10:55;0.90;;;0.90;;
6551;SDS011;3309;48.708;9.290;2024-01-16T09:13:21;0.90;;;0.90;;
6551;SDS011;3309;48.708;9.290;2024-01-16T09:15:48;0.90;;;0.90;;
6551;SDS011;3309;48.708;9.290;2024-01-16T09:18:14;0.90;;;0.90;;
6551;SDS011;3309;48.708;9.290;2024-01-16T09:20:41;0.80;;;0.80;;
6551;SDS011;3309;48.708;9.290;2024-01-16T09:23:07;0.90;;;0.90;;
6551;SDS011;3309;48.708;9.290;2024-01-16T09:25:33;0.80;;;0.80;;
6551;SDS011;3309;48.708;9.290;2024-01-16T09:27:59;0.90;;;0.90;;
6551;SDS011;3309;48.708;9.290;2024-01-16T09:30:26;0.90;;;0.90;;
6551;SDS011;3309;48.708;9.290;2024-01-16T09:32:52;0.90;;;0.90;;
6551;SDS011;3309;48.708;9.290;2024-01-16T09:35:18;0.80;;;0.80;;
6551;SDS011;3309;48.708;9.290;2024-01-16T09:37:43;0.80;;;0.80;;
6551;SDS011;3309;48.708;9.290;2024-01-16T09:40:09;1.00;;;1.00;;
6551;SDS011;3309;48.708;9.290;2024-01-16T09:42:35;0.90;;;0.90;;
6551;SDS011;3309;48.708;9.290;2024-01-16T09:45:01;0.90;;;0.90;;
6551;SDS011;3309;48.708;9.290;2024-01-16T09:47:28;0.80;;;0.80;;
6551;SDS011;3309;48.708;9.290;2024-01-16T09:49:57;0.90;;;0.90;;
6551;SDS011;3309;48.708;9.290;2024-01-16T09:52:25;0.70;;;0.70;;
6551;SDS011;3309;48.708;9.290;2024-01-16T09:54:51;0.70;;;0.70;;
6551;SDS011;3309;48.708;9.290;2024-01-16T09:57:18;0.70;;;0.70;;
6551;SDS011;3309;48.708;9.290;2024-01-16T09:59:48;0.70;;;0.70;;
6551;SDS011;3309;48.708;9.290;2024-01-16T10:02:14;0.80;;;0.80;;
6551;SDS011;3309;48.708;9.290;2024-01-16T10:04:43;0.70;;;0.70;;
6551;SDS011;3309;48.708;9.290;2024-01-16T10:07:10;0.70;;;0.70;;
6551;SDS011;3309;48.708;9.290;2024-01-16T10:09:38;0.80;;;0.80;;
6551;SDS011;3309;48.708;9.290;2024-01-16T10:12:04;0.70;;;0.70;;
6551;SDS011;3309;48.708;9.290;2024-01-16T10:14:35;0.70;;;0.70;;
6551;SDS011;3309;48.708;9.290;2024-01-16T10:17:02;0.70;;;0.70;;
6551;SDS011;3309;48.708;9.290;2024-01-16T10:22:21;0.60;;;0.60;;
6551;SDS011;3309;48.708;9.290;2024-01-16T10:24:49;0.60;;;0.60;;
6551;SDS011;3309;48.708;9.290;2024-01-16T10:27:34;0.70;;;0.70;;
6551;SDS011;3309;48.708;9.290;2024-01-16T10:30:01;0.60;;;0.60;;
6551;SDS011;3309;48.708;9.290;2024-01-16T10:32:28;0.70;;;0.70;;
6551;SDS011;3309;48.708;9.290;2024-01-16T10:35:07;0.60;;;0.60;;
6551;SDS011;3309;48.708;9.290;2024-01-16T10:37:49;0.60;;;0.60;;
6551;SDS011;3309;48.708;9.290;2024-01-16T10:40:19;0.60;;;0.60;;
6551;SDS011;3309;48.708;9.290;2024-01-16T10:43:01;0.60;;;0.60;;
6551;SDS011;3309;48.708;9.290;2024-01-16T10:45:31;0.50;;;0.50;;
6551;SDS011;3309;48.708;9.290;2024-01-16T10:48:03;0.50;;;0.50;;
6551;SDS011;3309;48.708;9.290;2024-01-16T10:50:30;0.60;;;0.60;;
6551;SDS011;3309;48.708;9.290;2024-01-16T10:52:58;0.60;;;0.60;;
6551;SDS011;3309;48.708;9.290;2024-01-16T10:55:28;0.60;;;0.60;;
6551;SDS011;3309;48.708;9.290;2024-01-16T10:57:58;0.50;;;0.50;;
6551;SDS011;3309;48.708;9.290;2024-01-16T11:00:27;0.50;;;0.50;;
6551;SDS011;3309;48.708;9.290;2024-01-16T11:03:09;0.60;;;0.60;;
6551;SDS011;3309;48.708;9.290;2024-01-16T11:05:41;0.57;;;0.57;;
6551;SDS011;3309;48.708;9.290;2024-01-16T11:08:08;0.60;;;0.60;;
6551;SDS011;3309;48.708;9.290;2024-01-16T11:10:34;0.50;;;0.50;;
6551;SDS011;3309;48.708;9.290;2024-01-16T11:13:01;0.50;;;0.50;;
6551;SDS011;3309;48.708;9.290;2024-01-16T11:15:29;0.50;;;0.50;;
6551;SDS011;3309;48.708;9.290;2024-01-16T11:17:57;0.57;;;0.57;;
6551;SDS011;3309;48.708;9.290;2024-01-16T11:20:26;0.53;;;0.53;;
6551;SDS011;3309;48.708;9.290;2024-01-16T11:22:53;0.57;;;0.57;;
6551;SDS011;3309;48.708;9.290;2024-01-16T11:25:30;0.50;;;0.50;;
6551;SDS011;3309;48.708;9.290;2024-01-16T11:28:08;0.50;;;0.50;;
6551;SDS011;3309;48.708;9.290;2024-01-16T11:30:38;0.50;;;0.50;;
6551;SDS011;3309;48.708;9.290;2024-01-16T11:33:04;0.50;;;0.50;;
6551;SDS011;3309;48.708;9.290;2024-01-16T11:35:33;0.40;;;0.40;;
6551;SDS011;3309;48.708;9.290;2024-01-16T11:38:26;0.40;;;0.40;;
6551;SDS011;3309;48.708;9.290;2024-01-16T11:40:53;0.47;;;0.47;;
6551;SDS011;3309;48.708;9.290;2024-01-16T11:45:59;0.50;;;0.50;;
6551;SDS011;3309;48.708;9.290;2024-01-16T11:48:24;0.50;;;0.50;;
6551;SDS011;3309;48.708;9.290;2024-01-16T11:50:50;0.60;;;0.60;;
6551;SDS011;3309;48.708;9.290;2024-01-16T11:56:02;0.80;;;0.80;;
6551;SDS011;3309;48.708;9.290;2024-01-16T12:01:48;0.70;;;0.70;;
6551;SDS011;3309;48.708;9.290;2024-01-16T12:04:17;0.70;;;0.70;;
6551;SDS011;3309;48.708;9.290;2024-01-16T12:06:46;0.70;;;0.70;;
6551;SDS011;3309;48.708;9.290;2024-01-16T12:09:25;0.70;;;0.70;;
6551;SDS011;3309;48.708;9.290;2024-01-16T12:12:02;0.70;;;0.70;;
6551;SDS011;3309;48.708;9.290;2024-01-16T12:14:28;0.80;;;0.80;;
6551;SDS011;3309;48.708;9.290;2024-01-16T12:17:10;0.80;;;0.80;;
6551;SDS011;3309;48.708;9.290;2024-01-16T12:19:36;0.70;;;0.70;;
6551;SDS011;3309;48.708;9.290;2024-01-16T12:22:05;0.80;;;0.80;;
6551;SDS011;3309;48.708;9.290;2024-01-16T12:24:33;0.70;;;0.70;;
6551;SDS011;3309;48.708;9.290;2024-01-16T12:26:59;0.80;;;0.80;;
6551;SDS011;3309;48.708;9.290;2024-01-16T12:29:24;0.80;;;0.80;;
6551;SDS011;3309;48.708;9.290;2024-01-16T12:31:50;0.70;;;0.70;;
6551;SDS011;3309;48.708;9.290;2024-01-16T12:34:29;0.80;;;0.80;;
6551;SDS011;3309;48.708;9.290;2024-01-16T12:37:03;0.70;;;0.70;;
6551;SDS011;3309;48.708;9.290;2024-01-16T12:39:30;0.80;;;0.80;;
6551;SDS011;3309;48.708;9.290;2024-01-16T12:41:57;0.60;;;0.60;;
6551;SDS011;3309;48.708;9.290;2024-01-16T12:44:28;0.60;;;0.60;;
6551;SDS011;3309;48.708;9.290;2024-01-16T12:46:54;0.60;;;0.60;;
6551;SDS011;3309;48.708;9.290;2024-01-16T12:49:24;0.50;;;0.50;;
6551;SDS011;3309;48.708;9.290;2024-01-16T12:51:50;0.40;;;0.40;;
6551;SDS011;3309;48.708;9.290;2024-01-16T12:54:16;0.63;;;0.63;;
6551;SDS011;3309;48.708;9.290;2024-01-16T12:56:43;0.57;;;0.57;;
6551;SDS011;3309;48.708;9.290;2024-01-16T12:59:12;0.60;;;0.60;;
6551;SDS011;3309;48.708;9.290;2024-01-16T13:01:39;0.50;;;0.50;;
6551;SDS011;3309;48.708;9.290;2024-01-16T13:04:09;0.60;;;0.60;;
6551;SDS011;3309;48.708;9.290;2024-01-16T13:06:36;0.60;;;0.60;;
6551;SDS011;3309;48.708;9.290;2024-01-16T13:09:06;0.40;;;0.40;;
6551;SDS011;3309;48.708;9.290;2024-01-16T13:11:49;0.50;;;0.50;;
6551;SDS011;3309;48.708;9.290;2024-01-16T13:14:25;0.60;;;0.60;;
6551;SDS011;3309;48.708;9.290;2024-01-16T13:16:51;0.50;;;0.50;;
6551;SDS011;3309;48.708;9.290;2024-01-16T13:19:20;0.47;;;0.47;;
6551;SDS011;3309;48.708;9.290;2024-01-16T13:21:46;0.50;;;0.50;;
6551;SDS011;3309;48.708;9.290;2024-01-16T13:24:15;0.50;;;0.50;;
6551;SDS011;3309;48.708;9.290;2024-01-16T13:26:42;0.53;;;0.53;;
6551;SDS011;3309;48.708;9.290;2024-01-16T13:29:08;0.40;;;0.40;;
6551;SDS011;3309;48.708;9.290;2024-01-16T13:31:34;0.40;;;0.40;;
6551;SDS011;3309;48.708;9.290;2024-01-16T13:33:59;0.50;;;0.50;;
6551;SDS011;3309;48.708;9.290;2024-01-16T13:36:25;0.40;;;0.40;;
6551;SDS011;3309;48.708;9.290;2024-01-16T13:38:51;0.40;;;0.40;;
6551;SDS011;3309;48.708;9.290;2024-01-16T13:41:17;0.40;;;0.40;;
6551;SDS011;3309;48.708;9.290;2024-01-16T13:43:42;0.40;;;0.40;;
6551;SDS011;3309;48.708;9.290;2024-01-16T13:46:08;0.40;;;0.40;;
6551;SDS011;3309;48.708;9.290;2024-01-16T13:48:35;0.50;;;0.50;;
6551;SDS011;3309;48.708;9.290;2024-01-16T13:51:00;0.40;;;0.40;;
6551;SDS011;3309;48.708;9.290;2024-01-16T13:53:26;0.40;;;0.40;;
6551;SDS011;3309;48.708;9.290;2024-01-16T13:55:52;0.50;;;0.50;;
6551;SDS011;3309;48.708;9.290;2024-01-16T13:58:18;0.50;;;0.50;;
6551;SDS011;3309;48.708;9.290;2024-01-16T14:00:43;0.50;;;0.50;;
6551;SDS011;3309;48.708;9.290;2024-01-16T14:03:09;0.47;;;0.47;;
6551;SDS011;3309;48.708;9.290;2024-01-16T14:05:34;0.50;;;0.50;;
6551;SDS011;3309;48.708;9.290;2024-01-16T14:08:04;0.50;;;0.50;;
6551;SDS011;3309;48.708;9.290;2024-01-16T14:10:39;0.40;;;0.40;;
6551;SDS011;3309;48.708;9.290;2024-01-16T14:13:06;0.50;;;0.50;;
6551;SDS011;3309;48.708;9.290;2024-01-16T14:15:31;0.40;;;0.40;;
6551;SDS011;3309;48.708;9.290;2024-01-16T14:17:57;0.40;;;0.40;;
6551;SDS011;3309;48.708;9.290;2024-01-16T14:20:24;0.50;;;0.50;;
6551;SDS011;3309;48.708;9.290;2024-01-16T14:22:51;0.50;;;0.50;;
6551;SDS011;3309;48.708;9.290;2024-01-16T14:25:18;0.50;;;0.50;;
6551;SDS011;3309;48.708;9.290;2024-01-16T14:27:45;0.50;;;0.50;;
6551;SDS011;3309;48.708;9.290;2024-01-16T14:30:14;0.40;;;0.40;;
6551;SDS011;3309;48.708;9.290;2024-01-16T14:32:41;0.60;;;0.60;;
6551;SDS011;3309;48.708;9.290;2024-01-16T14:35:09;0.40;;;0.40;;
6551;SDS011;3309;48.708;9.290;2024-01-16T14:37:35;0.50;;;0.50;;
6551;SDS011;3309;48.708;9.290;2024-01-16T14:40:02;0.50;;;0.50;;
6551;SDS011;3309;48.708;9.290;2024-01-16T14:42:33;0.50;;;0.50;;
6551;SDS011;3309;48.708;9.290;2024-01-16T14:44:59;0.60;;;0.60;;
6551;SDS011;3309;48.708;9.290;2024-01-16T14:47:25;0.50;;;0.50;;
6551;SDS011;3309;48.708;9.290;2024-01-16T14:49:50;0.60;;;0.60;;
6551;SDS011;3309;48.708;9.290;2024-01-16T14:52:18;0.70;;;0.70;;
6551;SDS011;3309;48.708;9.290;2024-01-16T14:54:43;0.60;;;0.60;;
6551;SDS011;3309;48.708;9.290;2024-01-16T14:57:09;0.50;;;0.50;;
6551;SDS011;3309;48.708;9.290;2024-01-16T14:59:36;0.60;;;0.60;;
6551;SDS011;3309;48.708;9.290;2024-01-16T15:02:02;0.63;;;0.63;;
6551;SDS011;3309;48.708;9.290;2024-01-16T15:04:37;0.73;;;0.73;;
6551;SDS011;3309;48.708;9.290;2024-01-16T15:07:04;0.70;;;0.70;;
6551;SDS011;3309;48.708;9.290;2024-01-16T15:09:30;0.60;;;0.60;;
6551;SDS011;3309;48.708;9.290;2024-01-16T15:11:59;0.60;;;0.60;;
6551;SDS011;3309;48.708;9.290;2024-01-16T15:14:26;0.80;;;0.80;;
6551;SDS011;3309;48.708;9.290;2024-01-16T15:16:51;0.73;;;0.73;;
6551;SDS011;3309;48.708;9.290;2024-01-16T15:19:17;0.80;;;0.80;;
6551;SDS011;3309;48.708;9.290;2024-01-16T15:21:42;0.80;;;0.80;;
6551;SDS011;3309;48.708;9.290;2024-01-16T15:24:08;0.70;;;0.70;;